Time;durP1;ratioP1;P1;durP2;ratioP2;P2;SDS_P1;SDS_P2;PMS_P1;PMS_P2;Temp;Humidity;BMP_temperature;BMP_pressure;BME280_temperature;BME280_humidity;BME280_pressure;Samples;Min_cycle;Max_cycle;Signal;HPM_P1;HPM_P2
2022/08/07 00:00:24;;;;;;;5.43;1.85;;;;;;;19.46;38.86;101859.88;5084162;28;20578;-64
2022/08/07 00:02:52;;;;;;;6.85;1.40;;;;;;;19.46;39.14;101850.66;5084314;28;20048;-63
2022/08/07 00:05:20;;;;;;;4.78;1.70;;;;;;;19.59;38.83;101858.75;5077578;28;20045;-63
2022/08/07 00:07:51;;;;;;;3.08;1.48;;;;;;;19.50;38.83;101851.59;5075795;28;20048;-64
2022/08/07 00:10:28;;;;;;;7.30;1.67;;;;;;;19.45;39.21;101849.03;5074245;28;20056;-64
2022/08/07 00:12:57;;;;;;;;;;;;;;;19.36;39.10;101851.94;5076463;28;20048;-64
2022/08/07 00:15:31;;;;;;;6.80;1.65;;;;;;;19.47;39.22;101850.34;5077324;28;20351;-64
2022/08/07 00:18:04;;;;;;;9.45;1.80;;;;;;;19.31;39.24;101846.56;5069997;28;20044;-64
2022/08/07 00:20:32;;;;;;;6.63;1.70;;;;;;;19.12;39.65;101843.44;5097118;28;20067;-64
2022/08/07 00:23:03;;;;;;;5.32;1.58;;;;;;;19.01;40.13;101851.44;5091558;28;20048;-64
2022/08/07 00:25:35;;;;;;;5.45;1.50;;;;;;;19.10;39.80;101854.13;5077202;28;20051;-64
2022/08/07 00:28:07;;;;;;;5.72;1.58;;;;;;;18.97;40.08;101853.25;5076877;28;20055;-65
2022/08/07 00:30:36;;;;;;;4.05;1.60;;;;;;;19.04;40.13;101838.75;5074497;28;20044;-65
2022/08/07 00:33:04;;;;;;;5.85;1.65;;;;;;;18.90;40.57;101841.00;5075734;28;20053;-64
2022/08/07 00:35:34;;;;;;;6.30;1.70;;;;;;;18.92;40.52;101830.31;5077098;28;20044;-65
2022/08/07 00:38:03;;;;;;;5.40;1.70;;;;;;;18.96;40.65;101837.69;5075520;28;20068;-65
2022/08/07 00:40:31;;;;;;;4.28;1.60;;;;;;;19.03;40.36;101829.56;5075833;28;20412;-65
2022/08/07 00:43:11;;;;;;;4.90;1.58;;;;;;;19.00;40.60;101835.03;5092710;28;20427;-64
2022/08/07 00:45:59;;;;;;;8.68;1.85;;;;;;;18.96;40.45;101829.31;5085815;28;20056;-65
2022/08/07 00:48:28;;;;;;;4.93;1.63;;;;;;;19.11;40.43;101829.81;5097004;28;20067;-65
2022/08/07 00:50:58;;;;;;;;;;;;;;;18.98;40.62;101826.16;5095700;28;20066;-65
2022/08/07 00:53:27;;;;;;;3.70;1.40;;;;;;;19.04;40.57;101819.19;5094696;28;19926;-66
2022/08/07 00:56:14;;;;;;;4.05;1.38;;;;;;;19.08;40.61;101828.53;5096734;28;20425;-64
2022/08/07 00:58:43;;;;;;;7.22;1.75;;;;;;;18.79;41.09;101828.63;5096860;28;20044;-64
2022/08/07 01:01:15;;;;;;;4.93;1.85;;;;;;;18.76;41.19;101826.50;5086237;28;20060;-64
2022/08/07 01:03:42;;;;;;;3.33;1.30;;;;;;;18.65;41.31;101819.72;5081256;28;20056;-65
2022/08/07 01:06:28;;;;;;;6.60;1.50;;;;;;;18.54;41.52;101827.69;5091833;28;20492;-65
2022/08/07 01:08:56;;;;;;;8.07;1.60;;;;;;;18.59;41.57;101816.31;5058212;28;20076;-65
2022/08/07 01:11:26;;;;;;;3.10;1.30;;;;;;;18.54;41.98;101826.88;5091685;28;20052;-64
2022/08/07 01:14:13;;;;;;;4.00;1.48;;;;;;;18.40;42.35;101821.56;5060075;28;20064;-64
2022/08/07 01:16:43;;;;;;;3.50;1.70;;;;;;;18.59;41.83;101816.31;5074958;28;20522;-64
2022/08/07 01:19:15;;;;;;;4.95;1.50;;;;;;;18.52;41.93;101827.22;5090310;28;20430;-65
2022/08/07 01:21:51;;;;;;;3.42;1.33;;;;;;;18.50;42.32;101812.78;5095024;28;20522;-64
2022/08/07 01:24:21;;;;;;;5.00;1.55;;;;;;;18.60;41.86;101808.78;5061944;28;20407;-64
2022/08/07 01:26:50;;;;;;;5.65;1.73;;;;;;;18.70;42.00;101811.13;5073826;28;20490;-62
2022/08/07 01:29:23;;;;;;;;;;;;;;;18.62;41.88;101817.63;5090939;28;20040;-64
2022/08/07 01:32:00;;;;;;;;;;;;;;;18.46;42.36;101809.03;5053962;28;19928;-64
2022/08/07 01:34:32;;;;;;;4.28;1.42;;;;;;;18.38;42.63;101804.31;5090961;28;20376;-64
2022/08/07 01:37:06;;;;;;;6.70;1.67;;;;;;;18.27;42.95;101816.22;5065545;28;20069;-64
2022/08/07 01:39:36;;;;;;;4.35;1.45;;;;;;;18.34;42.82;101810.91;5054267;28;20381;-65
2022/08/07 01:42:39;;;;;;;5.03;1.58;;;;;;;18.24;43.12;101808.50;5052820;28;20063;-64
2022/08/07 01:45:28;;;;;;;6.35;1.45;;;;;;;18.22;43.26;101811.63;5055617;28;20053;-65
2022/08/07 01:48:11;;;;;;;3.80;1.65;;;;;;;18.32;43.03;101813.22;5075508;28;20044;-62
2022/08/07 01:50:59;;;;;;;4.22;1.55;;;;;;;18.28;43.32;101813.09;5055169;28;20061;-65
2022/08/07 01:53:56;;;;;;;5.28;1.75;;;;;;;18.22;43.39;101813.63;5054233;28;20640;-64
2022/08/07 01:56:46;;;;;;;7.50;1.42;;;;;;;18.30;43.35;101807.97;5056785;28;20059;-64
2022/08/07 01:59:26;;;;;;;5.55;1.48;;;;;;;18.05;43.79;101822.91;5053951;28;20052;-64
2022/08/07 02:02:03;;;;;;;6.35;2.00;;;;;;;17.99;44.31;101824.25;5054832;28;20060;-64
2022/08/07 02:04:40;;;;;;;3.72;1.63;;;;;;;18.02;44.17;101823.59;5073262;28;20053;-64
2022/08/07 02:07:36;;;;;;;4.80;1.52;;;;;;;18.03;44.46;101808.47;5059690;28;20060;-64
2022/08/07 02:10:23;;;;;;;3.97;1.70;;;;;;;18.14;44.21;101808.91;5052036;28;20080;-62
2022/08/07 02:12:51;;;;;;;4.47;1.40;;;;;;;17.99;44.34;101827.84;5053802;28;20064;-65
2022/08/07 02:15:25;;;;;;;5.93;1.70;;;;;;;17.94;44.50;101818.84;5053750;28;20045;-62
2022/08/07 02:17:56;;;;;;;3.78;1.67;;;;;;;18.09;44.29;101812.72;5060510;28;20044;-62
2022/08/07 02:20:26;;;;;;;5.07;1.70;;;;;;;18.14;43.94;101820.06;5074089;28;20048;-62
2022/08/07 02:23:00;;;;;;;9.07;1.70;;;;;;;18.14;43.96;101820.88;5052621;28;20504;-65
2022/08/07 02:25:30;;;;;;;6.22;1.73;;;;;;;18.01;44.44;101819.13;5056437;28;20048;-65
2022/08/07 02:28:18;;;;;;;3.40;1.50;;;;;;;17.97;44.88;101819.00;5067341;28;20144;-62
2022/08/07 02:30:56;;;;;;;5.78;1.90;;;;;;;17.94;44.65;101824.44;5053082;28;20045;-64
2022/08/07 02:33:25;;;;;;;;;;;;;;;17.80;45.15;101809.94;5059442;28;20044;-62
2022/08/07 02:36:09;;;;;;;5.82;1.60;;;;;;;17.91;44.82;101822.31;5089758;28;19928;-63
2022/08/07 02:38:57;;;;;;;5.68;1.73;;;;;;;17.97;44.84;101816.22;5056353;28;20059;-65
2022/08/07 02:41:28;;;;;;;3.83;1.63;;;;;;;17.71;45.54;101817.50;5056948;28;20057;-62
2022/08/07 02:44:04;;;;;;;5.47;1.80;;;;;;;17.49;46.25;101814.97;5057513;28;20056;-62
2022/08/07 02:46:32;;;;;;;5.80;1.83;;;;;;;17.39;46.75;101801.38;5073148;28;20066;-62
2022/08/07 02:49:04;;;;;;;7.15;1.77;;;;;;;17.49;46.53;101815.78;5072791;28;20056;-65
2022/08/07 02:51:34;;;;;;;5.70;1.85;;;;;;;17.40;46.76;101814.97;5091183;28;20047;-62
2022/08/07 02:54:17;;;;;;;5.53;1.52;;;;;;;17.21;47.47;101811.75;5079027;28;20052;-65
2022/08/07 02:56:46;;;;;;;7.32;1.40;;;;;;;17.19;47.41;101805.69;5076956;28;20040;-65
2022/08/07 02:59:17;;;;;;;3.75;1.42;;;;;;;17.28;47.41;101808.44;5093679;28;20063;-63
2022/08/07 03:01:51;;;;;;;5.47;1.40;;;;;;;17.31;47.38;101805.00;5093421;28;20063;-62
2022/08/07 03:04:23;;;;;;;3.85;2.10;;;;;;;17.22;47.47;101807.00;5073513;28;20601;-62
2022/08/07 03:06:51;;;;;;;5.45;1.75;;;;;;;17.08;47.75;101804.41;5073027;28;20388;-64
2022/08/07 03:09:20;;;;;;;3.35;1.35;;;;;;;17.11;48.00;101808.47;5056440;28;20057;-64
2022/08/07 03:12:09;;;;;;;4.28;1.65;;;;;;;17.06;48.26;101801.13;5073204;28;20562;-63
2022/08/07 03:14:50;;;;;;;4.28;1.60;;;;;;;17.15;48.20;101801.13;5058347;28;20074;-61
2022/08/07 03:17:19;;;;;;;4.63;1.60;;;;;;;16.99;48.45;101805.56;5089242;28;20056;-61
2022/08/07 03:19:50;;;;;;;5.57;1.80;;;;;;;16.94;48.80;101803.78;5081691;28;20060;-65
2022/08/07 03:22:23;;;;;;;4.03;1.73;;;;;;;17.13;48.34;101806.19;5072677;28;20056;-63
2022/08/07 03:24:58;;;;;;;6.45;2.08;;;;;;;17.18;48.05;101800.44;5036668;28;20049;-65
2022/08/07 03:27:29;;;;;;;14.98;3.70;;;;;;;17.20;48.22;101800.94;5036965;28;20056;-64
2022/08/07 03:30:17;;;;;;;6.97;3.50;;;;;;;17.13;48.53;101793.09;5039285;28;20057;-62
2022/08/07 03:32:48;;;;;;;11.20;3.65;;;;;;;17.06;48.60;101803.09;5053100;28;20057;-61
2022/08/07 03:35:29;;;;;;;10.20;3.70;;;;;;;17.20;48.29;101806.50;5056987;28;20052;-61
2022/08/07 03:38:18;;;;;;;7.85;4.07;;;;;;;17.22;48.12;101802.25;5058508;28;20057;-61
2022/08/07 03:41:00;;;;;;;9.07;4.00;;;;;;;17.04;48.84;101806.22;5072987;28;20502;-61
2022/08/07 03:43:31;;;;;;;11.27;3.50;;;;;;;17.06;48.92;101803.09;5076958;28;20057;-60
2022/08/07 03:46:03;;;;;;;6.85;2.92;;;;;;;16.99;49.05;101805.56;5060542;28;20052;-61
2022/08/07 03:48:46;;;;;;;5.53;2.38;;;;;;;16.81;49.69;101808.38;5075714;28;20055;-64
2022/08/07 03:51:33;;;;;;;8.95;2.45;;;;;;;17.08;49.15;101809.97;5062320;28;20049;-65
2022/08/07 03:54:15;;;;;;;7.75;2.65;;;;;;;16.98;49.50;101803.94;5078373;28;20052;-63
2022/08/07 03:57:06;;;;;;;7.72;2.17;;;;;;;16.96;49.59;101798.72;5077534;28;20048;-64
2022/08/07 03:59:35;;;;;;;5.63;2.10;;;;;;;16.98;49.62;101806.72;5076442;28;20049;-64
2022/08/07 04:02:13;;;;;;;8.20;2.28;;;;;;;17.04;49.60;101822.09;5075902;28;20059;-62
2022/08/07 04:04:41;;;;;;;5.40;2.25;;;;;;;16.84;50.01;101810.50;5059738;28;20056;-61
2022/08/07 04:07:15;;;;;;;6.40;1.85;;;;;;;16.78;50.46;101809.03;5060027;28;20061;-64
2022/08/07 04:09:46;;;;;;;4.45;1.75;;;;;;;16.84;50.10;101810.50;5074665;28;20048;-64
2022/08/07 04:12:20;;;;;;;6.22;1.60;;;;;;;17.03;49.75;101812.94;5075842;28;20048;-64
2022/08/07 04:14:57;;;;;;;4.65;1.80;;;;;;;17.17;49.63;101804.41;5060623;28;20052;-63
2022/08/07 04:17:29;;;;;;;4.57;1.75;;;;;;;17.06;49.57;101803.91;5062225;28;20048;-62
2022/08/07 04:20:18;;;;;;;3.75;1.70;;;;;;;16.92;50.21;101808.03;5110591;28;20048;-61
2022/08/07 04:22:48;;;;;;;4.82;1.67;;;;;;;16.79;50.51;101812.63;5092369;28;20045;-61
2022/08/07 04:25:28;;;;;;;5.07;1.85;;;;;;;16.78;50.33;101806.25;5061278;28;20055;-60
2022/08/07 04:27:58;;;;;;;3.60;1.60;;;;;;;16.85;50.35;101800.19;5059773;28;20044;-61
2022/08/07 04:30:29;;;;;;;5.28;2.00;;;;;;;16.93;50.29;101802.13;5059718;28;20049;-64
2022/08/07 04:33:23;;;;;;;8.90;1.83;;;;;;;17.00;50.28;101801.66;5075026;28;20503;-61
2022/08/07 04:35:52;;;;;;;;;;;;;;;16.89;50.34;101803.97;5059689;28;20044;-61
2022/08/07 04:38:25;;;;;;;5.45;1.80;;;;;;;16.99;50.42;101800.81;5076143;28;19920;-64
2022/08/07 04:40:52;;;;;;;5.80;1.80;;;;;;;17.09;50.00;101803.25;5042733;28;20056;-61
2022/08/07 04:43:45;;;;;;;3.97;1.50;;;;;;;17.01;50.20;101808.84;5076545;28;20139;-64
2022/08/07 04:47:05;;;;;;;5.18;1.90;;;;;;;16.88;50.49;101807.88;5060079;28;20052;-65
2022/08/07 04:50:03;;;;;;;5.78;2.13;;;;;;;17.05;50.16;101805.06;5080611;28;20051;-64
2022/08/07 04:52:50;;;;;;;5.55;1.83;;;;;;;17.04;50.21;101811.78;5095122;28;20043;-62
2022/08/07 04:55:42;;;;;;;6.75;1.65;;;;;;;16.82;50.81;101809.19;5078883;28;20052;-61
2022/08/07 04:58:36;;;;;;;8.00;1.73;;;;;;;16.75;51.19;101811.66;5095165;28;20059;-62
2022/08/07 05:01:30;;;;;;;6.53;1.73;;;;;;;16.43;51.97;101817.66;5072039;28;20084;-64
2022/08/07 05:04:16;;;;;;;6.32;2.35;;;;;;;16.57;51.96;101821.16;5071990;28;20045;-65
2022/08/07 05:07:12;;;;;;;8.13;2.00;;;;;;;16.72;51.59;101817.84;5039272;28;20053;-62
2022/08/07 05:10:08;;;;;;;4.50;1.90;;;;;;;17.00;50.72;101821.94;5055169;28;20045;-62
2022/08/07 05:13:04;;;;;;;4.47;1.70;;;;;;;16.86;51.26;101826.84;5054166;28;20064;-62
2022/08/07 05:15:52;;;;;;;6.28;2.22;;;;;;;16.83;51.53;101830.31;5074180;28;20051;-61
2022/08/07 05:18:34;;;;;;;5.28;1.70;;;;;;;16.93;51.17;101829.16;5067163;28;20078;-62
2022/08/07 05:21:04;;;;;;;5.55;1.60;;;;;;;16.89;51.25;101834.56;5095108;28;20051;-65
2022/08/07 05:23:49;;;;;;;4.97;1.95;;;;;;;16.75;51.45;101842.28;5075264;28;20044;-64
2022/08/07 05:26:19;;;;;;;7.10;1.70;;;;;;;16.65;51.99;101839.78;5074852;28;20427;-64
2022/08/07 05:28:57;;;;;;;7.13;2.47;;;;;;;16.58;52.08;101842.28;5059441;28;20053;-62
2022/08/07 05:31:32;;;;;;;7.60;1.73;;;;;;;16.74;51.73;101846.19;5074252;28;20044;-62
2022/08/07 05:34:07;;;;;;;8.52;2.15;;;;;;;16.60;52.17;101848.31;5042356;28;20584;-61
2022/08/07 05:36:42;;;;;;;7.63;2.08;;;;;;;16.61;52.11;101845.22;5025560;28;20048;-61
2022/08/07 05:39:21;;;;;;;4.70;1.90;;;;;;;16.70;52.06;101854.34;5058762;28;20049;-61
2022/08/07 05:42:08;;;;;;;5.35;1.88;;;;;;;16.63;52.21;101847.66;5060290;28;20067;-61
2022/08/07 05:44:41;;;;;;;5.65;1.55;;;;;;;16.95;51.53;101843.53;5073940;28;20056;-62
2022/08/07 05:47:30;;;;;;;5.95;1.70;;;;;;;17.02;51.09;101852.22;5054582;28;20045;-64
2022/08/07 05:50:17;;;;;;;5.35;2.03;;;;;;;16.78;51.55;101847.16;5040826;28;20049;-65
2022/08/07 05:52:45;;;;;;;6.38;1.85;;;;;;;16.76;51.84;101855.03;5037332;28;20053;-64
2022/08/07 05:55:13;;;;;;;5.90;1.63;;;;;;;16.96;51.39;101859.94;5054241;28;20523;-64
2022/08/07 05:57:43;;;;;;;;;;;;;;;16.76;51.75;101860.59;5054498;28;20504;-63
2022/08/07 06:00:13;;;;;;;8.88;2.42;;;;;;;16.72;52.01;101854.84;5061057;28;19924;-64
2022/08/07 06:02:49;;;;;;;8.13;1.83;;;;;;;16.74;51.93;101860.09;5053785;28;20071;-65
2022/08/07 06:05:19;;;;;;;7.03;1.90;;;;;;;16.68;52.09;101850.28;5069992;28;20056;-64
2022/08/07 06:07:59;;;;;;;4.82;1.88;;;;;;;16.86;51.49;101861.06;5041963;28;20831;-64
2022/08/07 06:10:47;;;;;;;;;;;;;;;16.91;51.47;101853.72;5083780;28;20053;-61
2022/08/07 06:13:18;;;;;;;4.85;1.65;;;;;;;17.03;51.04;101846.34;5087022;28;19924;-62
2022/08/07 06:16:08;;;;;;;6.72;1.70;;;;;;;17.20;50.74;101859.41;5088846;28;20056;-65
2022/08/07 06:18:39;;;;;;;7.75;1.90;;;;;;;17.15;50.66;101849.28;5054483;28;20052;-65
2022/08/07 06:21:10;;;;;;;7.78;1.60;;;;;;;17.25;50.77;101848.09;5070816;28;20503;-62
2022/08/07 06:23:58;;;;;;;5.45;1.65;;;;;;;17.34;50.15;101848.91;5058308;28;20126;-62
2022/08/07 06:26:45;;;;;;;5.45;1.70;;;;;;;17.32;50.28;101852.03;5015673;28;20052;-61
2022/08/07 06:29:13;;;;;;;6.72;1.65;;;;;;;17.37;49.93;101856.59;5073848;28;20075;-62
2022/08/07 06:31:41;;;;;;;5.53;1.63;;;;;;;17.53;49.56;101850.19;5067552;28;20051;-59
2022/08/07 06:34:17;;;;;;;5.38;1.50;;;;;;;17.72;48.80;101847.81;5077509;28;20401;-62
2022/08/07 06:36:48;;;;;;;5.80;1.60;;;;;;;17.69;48.77;101853.25;5067911;28;20496;-63
2022/08/07 06:39:23;;;;;;;4.32;1.65;;;;;;;17.93;48.39;101853.47;5053505;28;20060;-63
2022/08/07 06:42:18;;;;;;;4.80;1.60;;;;;;;17.40;49.28;101844.81;5071194;28;20075;-64
2022/08/07 06:45:14;;;;;;;5.20;1.50;;;;;;;17.37;49.40;101846.28;5069001;28;20060;-64
2022/08/07 06:47:53;;;;;;;5.60;1.70;;;;;;;17.28;49.58;101848.25;5053353;28;20049;-64
2022/08/07 06:50:34;;;;;;;5.20;1.65;;;;;;;17.36;49.23;101849.38;5069482;28;20040;-64
2022/08/07 06:53:05;;;;;;;4.03;1.42;;;;;;;17.53;48.89;101849.38;5068462;28;20455;-63
2022/08/07 06:55:53;;;;;;;4.60;1.70;;;;;;;17.61;48.75;101854.09;5071913;28;20053;-63
2022/08/07 06:58:32;;;;;;;5.95;1.85;;;;;;;17.69;48.71;101856.03;5072434;28;20051;-63
2022/08/07 07:01:08;;;;;;;6.70;2.20;;;;;;;17.72;48.46;101858.97;5048545;28;20048;-61
2022/08/07 07:03:40;;;;;;;2.85;1.45;;;;;;;17.71;48.37;101865.69;5065604;28;20049;-61
2022/08/07 07:06:16;;;;;;;;;;;;;;;17.69;48.51;101847.69;5063002;28;20044;-62
2022/08/07 07:08:53;;;;;;;4.25;1.33;;;;;;;17.81;48.12;101848.63;5058893;28;19932;-62
2022/08/07 07:11:20;;;;;;;4.95;1.65;;;;;;;18.05;47.75;101850.78;5060369;28;20060;-62
2022/08/07 07:14:09;;;;;;;5.70;1.40;;;;;;;17.98;47.80;101865.25;5061024;28;20451;-63
2022/08/07 07:16:41;;;;;;;5.18;1.50;;;;;;;18.02;47.52;101862.63;5060374;28;20059;-65
2022/08/07 07:19:20;;;;;;;5.00;1.58;;;;;;;18.02;47.65;101857.03;5066222;28;20032;-63
2022/08/07 07:22:09;;;;;;;8.02;1.70;;;;;;;18.04;47.54;101857.53;5065250;28;20093;-61
2022/08/07 07:24:57;;;;;;;3.63;1.30;;;;;;;18.16;47.04;101860.41;5063687;28;20788;-62
2022/08/07 07:27:51;;;;;;;6.18;1.38;;;;;;;18.11;47.17;101857.81;5079723;28;20032;-63
2022/08/07 07:30:33;;;;;;;3.67;1.35;;;;;;;18.33;46.31;101851.94;5067088;28;20503;-61
2022/08/07 07:33:09;;;;;;;4.93;1.45;;;;;;;18.54;46.09;101844.44;5051334;28;20052;-62
2022/08/07 07:35:43;;;;;;;4.75;1.63;;;;;;;18.59;45.62;101840.63;5065479;28;20052;-62
2022/08/07 07:38:31;;;;;;;3.75;1.33;;;;;;;18.72;45.47;101842.31;5078760;28;20507;-63
2022/08/07 07:41:03;;;;;;;6.22;1.58;;;;;;;18.70;45.30;101844.63;5059311;28;20049;-63
2022/08/07 07:43:38;;;;;;;5.32;1.42;;;;;;;18.81;45.13;101845.88;5084670;28;20060;-63
2022/08/07 07:46:27;;;;;;;3.05;1.27;;;;;;;18.84;45.03;101837.63;5067501;28;20048;-63
2022/08/07 07:49:16;;;;;;;3.75;1.60;;;;;;;19.04;44.73;101841.53;5054513;28;20583;-63
2022/08/07 07:52:04;;;;;;;4.47;1.45;;;;;;;19.03;43.99;101842.69;5075611;28;20056;-63
2022/08/07 07:54:33;;;;;;;3.85;1.30;;;;;;;18.93;43.81;101838.34;5064960;28;20048;-62
2022/08/07 07:57:02;;;;;;;3.53;1.23;;;;;;;19.00;43.56;101835.03;5068402;28;20412;-62
2022/08/07 07:59:30;;;;;;;5.95;1.30;;;;;;;19.31;42.96;101838.19;5068558;28;20496;-63
2022/08/07 08:02:19;;;;;;;4.90;1.38;;;;;;;19.56;42.43;101828.66;5068966;28;20057;-63
2022/08/07 08:05:02;;;;;;;4.93;1.00;;;;;;;19.52;42.05;101838.09;5070614;28;20060;-63
2022/08/07 08:07:31;;;;;;;4.10;1.15;;;;;;;19.65;41.87;101832.19;5067965;28;20048;-62
2022/08/07 08:10:09;;;;;;;2.78;1.20;;;;;;;19.86;40.98;101829.28;5069169;28;20052;-64
2022/08/07 08:12:41;;;;;;;2.75;0.95;;;;;;;19.87;41.67;101819.75;5068123;28;20059;-63
2022/08/07 08:15:28;;;;;;;3.55;1.25;;;;;;;20.14;41.28;101831.03;5069686;28;20060;-62
2022/08/07 08:18:16;;;;;;;4.50;1.23;;;;;;;20.12;40.65;101819.38;5069278;28;20045;-62
2022/08/07 08:21:04;;;;;;;2.38;1.00;;;;;;;19.97;40.73;101822.06;5071166;28;20083;-62
2022/08/07 08:29:07;;;;;;;9.65;3.95;;;;;;;20.22;40.16;101806.13;5072439;28;20045;-62
2022/08/07 08:31:37;;;;;;;1.80;0.98;;;;;;;20.32;40.26;101809.25;5069679;28;20524;-62
2022/08/07 08:34:32;;;;;;;1.83;0.80;;;;;;;20.38;39.80;101807.81;5081850;28;20503;-63
2022/08/07 08:37:02;;;;;;;3.88;1.15;;;;;;;20.34;39.78;101803.28;5072400;28;20415;-61
2022/08/07 08:39:36;;;;;;;4.50;1.30;;;;;;;20.29;39.58;101807.16;5069888;28;20056;-61
2022/08/07 08:42:36;;;;;;;3.40;1.10;;;;;;;20.30;39.64;101807.94;5058119;28;20147;-66
2022/08/07 08:45:20;;;;;;;3.60;1.10;;;;;;;20.47;39.23;101796.50;5070481;28;20053;-65
2022/08/07 08:48:18;;;;;;;5.15;1.00;;;;;;;20.60;39.34;101792.50;5084772;28;20060;-64
2022/08/07 08:50:51;;;;;;;3.67;1.08;;;;;;;20.59;38.99;101799.28;5086190;28;20048;-62
2022/08/07 08:53:28;;;;;;;3.83;1.20;;;;;;;20.65;38.45;101795.03;5088467;28;20078;-68
2022/08/07 08:56:19;;;;;;;4.55;1.00;;;;;;;20.80;37.95;101802.69;5083586;28;20048;-62
2022/08/07 08:59:08;;;;;;;3.15;1.00;;;;;;;20.87;37.93;101789.69;5062146;28;20052;-62
2022/08/07 09:01:48;;;;;;;3.58;0.93;;;;;;;20.92;37.51;101795.03;5066935;28;20404;-61
2022/08/07 09:04:37;;;;;;;5.03;1.20;;;;;;;21.01;37.29;101792.09;5063865;28;20795;-62
2022/08/07 09:07:18;;;;;;;3.10;0.93;;;;;;;21.03;37.29;101807.41;5074629;28;20060;-62
2022/08/07 09:09:58;;;;;;;2.10;0.90;;;;;;;20.94;36.62;101784.28;5057985;28;20080;-62
2022/08/07 09:12:35;;;;;;;5.10;0.90;;;;;;;20.92;36.36;101792.22;5075353;28;20049;-60
2022/08/07 09:15:11;;;;;;;4.78;0.75;;;;;;;20.99;37.29;101800.88;5074482;28;20056;-61
2022/08/07 09:18:34;;;;;;;4.20;1.00;;;;;;;20.95;36.46;101794.34;5075077;28;20063;-60
2022/08/07 09:21:09;;;;;;;5.65;1.00;;;;;;;21.01;35.92;101790.13;5074254;28;20510;-62
2022/08/07 09:24:18;;;;;;;1.70;0.70;;;;;;;21.00;36.14;101777.31;5072466;28;20067;-61
2022/08/07 09:27:43;;;;;;;3.65;0.80;;;;;;;21.06;36.36;101789.88;5062623;28;20372;-63
2022/08/07 09:30:48;;;;;;;4.53;1.20;;;;;;;21.44;36.42;101794.09;5067396;28;20044;-61
2022/08/07 09:33:39;;;;;;;2.55;0.80;;;;;;;21.63;35.27;101782.97;5063693;28;20048;-60
2022/08/07 09:36:30;;;;;;;3.20;1.02;;;;;;;21.66;34.64;101782.22;5067865;28;20055;-60
2022/08/07 09:39:04;;;;;;;3.45;1.27;;;;;;;21.67;34.26;101790.28;5064313;28;20045;-60
2022/08/07 09:42:01;;;;;;;2.50;0.80;;;;;;;21.68;34.17;101780.72;5080413;28;22026;-61
2022/08/07 09:44:40;;;;;;;2.53;1.10;;;;;;;21.89;33.87;101774.81;5082685;28;20071;-61
2022/08/07 09:47:55;;;;;;;7.95;1.15;;;;;;;21.93;33.39;101789.75;5064566;28;20052;-61
2022/08/07 09:51:10;;;;;;;2.63;1.15;;;;;;;21.63;33.86;101791.38;5068784;28;20053;-61
2022/08/07 09:53:59;;;;;;;3.78;1.00;;;;;;;21.64;34.00;101782.59;5033898;28;20045;-61
2022/08/07 09:56:41;;;;;;;5.05;1.42;;;;;;;21.67;34.06;101790.28;5066660;28;20055;-61
2022/08/07 09:59:20;;;;;;;5.17;1.00;;;;;;;21.65;34.27;101787.06;5065454;28;20075;-61
2022/08/07 10:02:31;;;;;;;5.93;1.08;;;;;;;21.75;34.03;101782.88;5067156;28;20052;-60
2022/08/07 10:05:18;;;;;;;4.43;1.17;;;;;;;21.86;34.08;101770.75;5068829;28;20052;-61
2022/08/07 10:08:19;;;;;;;5.05;1.05;;;;;;;22.05;34.37;101782.06;5066291;28;20713;-62
2022/08/07 10:11:21;;;;;;;2.35;0.98;;;;;;;22.17;34.21;101753.88;5067922;28;20544;-64
2022/08/07 10:14:44;;;;;;;2.40;0.95;;;;;;;22.19;33.74;101756.31;5053302;28;20068;-61
2022/08/07 10:17:46;;;;;;;3.22;1.10;;;;;;;22.17;33.84;101778.31;5066154;28;20045;-61
2022/08/07 10:20:39;;;;;;;5.15;1.23;;;;;;;21.98;33.97;101759.44;5077616;28;20060;-61
2022/08/07 10:23:36;;;;;;;2.25;0.90;;;;;;;21.98;34.11;101764.22;5050597;28;20057;-61
2022/08/07 10:26:43;;;;;;;3.85;1.08;;;;;;;22.25;33.51;101740.78;5051049;28;20037;-61
2022/08/07 10:29:25;;;;;;;3.75;1.13;;;;;;;22.18;33.54;101741.44;5067074;28;20044;-61
2022/08/07 10:32:36;;;;;;;4.43;1.10;;;;;;;22.14;33.25;101740.56;5069268;28;20060;-61
2022/08/07 10:35:26;;;;;;;4.22;1.50;;;;;;;22.30;33.38;101743.31;4988373;28;20056;-62
2022/08/07 10:38:22;;;;;;;3.67;1.15;;;;;;;22.23;33.33;101754.38;5069591;28;20183;-64
2022/08/07 10:41:18;;;;;;;6.28;1.23;;;;;;;22.32;33.72;101738.13;5067089;28;20048;-61
2022/08/07 10:44:19;;;;;;;5.43;1.13;;;;;;;22.51;33.71;101738.16;5063160;28;20526;-61
2022/08/07 10:47:14;;;;;;;4.75;1.80;;;;;;;22.29;34.01;101745.31;5063357;28;20052;-60
2022/08/07 10:49:52;;;;;;;4.75;1.40;;;;;;;22.42;33.21;101748.78;5065019;28;20036;-62
2022/08/07 10:52:25;;;;;;;3.20;1.00;;;;;;;22.33;33.16;101736.97;5073819;28;20067;-62
2022/08/07 10:55:10;;;;;;;4.47;1.13;;;;;;;22.46;33.17;101724.41;5065892;28;20053;-62
2022/08/07 10:58:31;;;;;;;3.65;1.10;;;;;;;22.57;32.65;101722.66;5066533;28;20044;-61
2022/08/07 11:01:31;;;;;;;3.55;1.10;;;;;;;22.68;33.06;101720.06;5053776;28;20534;-62
2022/08/07 11:04:46;;;;;;;3.28;0.95;;;;;;;22.67;32.87;101718.44;5065059;28;20072;-61
2022/08/07 11:07:25;;;;;;;3.33;1.30;;;;;;;22.71;32.84;101714.53;5079676;28;20061;-61
2022/08/07 11:10:58;;;;;;;4.57;1.15;;;;;;;22.89;32.67;101709.25;5053852;28;20060;-60
2022/08/07 11:13:35;;;;;;;3.30;1.38;;;;;;;23.13;32.51;101697.66;5081155;28;20048;-63
2022/08/07 11:16:30;;;;;;;4.95;1.15;;;;;;;23.08;32.76;101686.72;5058402;28;20048;-61
2022/08/07 11:19:03;;;;;;;4.68;1.45;;;;;;;23.09;32.37;101693.94;5064924;28;20049;-60
2022/08/07 11:21:35;;;;;;;3.80;1.15;;;;;;;22.98;32.18;101692.97;5068315;28;20051;-61
2022/08/07 11:24:32;;;;;;;4.38;1.30;;;;;;;22.95;32.30;101693.69;5063319;28;20052;-61
2022/08/07 11:27:21;;;;;;;2.83;1.15;;;;;;;23.06;32.51;101689.09;5068380;28;20052;-61
2022/08/07 11:30:17;;;;;;;5.57;1.55;;;;;;;23.04;31.76;101672.59;5074032;28;20059;-61
2022/08/07 11:33:07;;;;;;;3.33;1.38;;;;;;;23.27;31.57;101678.22;5067463;28;20048;-61
2022/08/07 11:35:59;;;;;;;3.85;1.30;;;;;;;23.28;31.78;101682.69;5071768;28;20048;-62
2022/08/07 11:38:32;;;;;;;3.95;1.40;;;;;;;23.26;31.89;101668.16;5066665;28;20044;-61
2022/08/07 11:41:08;;;;;;;4.10;1.58;;;;;;;23.40;31.73;101672.03;5066506;28;20451;-62
2022/08/07 11:43:53;;;;;;;3.30;1.60;;;;;;;23.38;30.80;101679.22;5066336;28;20048;-61
2022/08/07 11:46:53;;;;;;;5.28;1.85;;;;;;;23.19;31.03;101665.22;5067124;28;20055;-61
2022/08/07 11:50:27;;;;;;;3.72;1.40;;;;;;;23.37;31.07;101677.59;5063439;28;20047;-62
2022/08/07 11:53:03;;;;;;;5.35;1.75;;;;;;;23.43;31.00;101659.25;5010914;28;20164;-61
2022/08/07 11:55:50;;;;;;;4.72;1.75;;;;;;;23.51;30.55;101648.91;5013296;28;20056;-62
2022/08/07 11:59:14;;;;;;;6.88;2.10;;;;;;;23.65;30.19;101644.31;5054587;28;20060;-62
2022/08/07 12:02:15;;;;;;;4.85;1.83;;;;;;;23.81;29.84;101663.81;5050656;28;20040;-62
2022/08/07 12:05:06;;;;;;;5.22;1.50;;;;;;;23.72;30.57;101644.41;5066932;28;20063;-61
2022/08/07 12:07:59;;;;;;;4.60;1.40;;;;;;;23.90;30.52;101647.47;5053753;28;20537;-62
2022/08/07 12:10:38;;;;;;;3.20;1.42;;;;;;;23.78;30.16;101662.56;5054290;28;20080;-61
2022/08/07 12:13:23;;;;;;;2.90;1.55;;;;;;;23.83;30.41;101655.81;5054700;28;20587;-61
2022/08/07 12:16:07;;;;;;;4.72;1.50;;;;;;;24.02;30.04;101650.09;5053348;28;20048;-62
2022/08/07 12:19:13;;;;;;;3.53;1.40;;;;;;;24.02;29.85;101650.09;5052083;28;20048;-61
2022/08/07 12:22:10;;;;;;;4.70;1.52;;;;;;;24.00;29.77;101639.22;5056575;28;20056;-61
2022/08/07 12:28:35;;;;;;;3.35;1.33;;;;;;;24.12;30.72;101643.78;5064548;28;20052;-61
2022/08/07 12:31:12;;;;;;;4.97;1.38;;;;;;;24.05;30.64;101636.06;5035697;28;20040;-61
2022/08/07 12:33:49;;;;;;;3.47;1.33;;;;;;;24.14;29.90;101633.75;5050298;28;20049;-61
2022/08/07 12:36:29;;;;;;;4.38;1.30;;;;;;;24.21;29.57;101642.28;5070527;28;20914;-61
2022/08/07 12:39:02;;;;;;;2.95;1.30;;;;;;;24.31;30.04;101632.34;5054863;28;20053;-61
2022/08/07 12:41:51;;;;;;;3.00;1.40;;;;;;;24.20;30.80;101634.25;5066139;28;20059;-61
2022/08/07 12:44:19;;;;;;;5.20;1.27;;;;;;;23.99;31.15;101623.50;5063605;28;20060;-61